CYEN - Estevan Airport

Pirep is a free, collaborative database of all public and private airports located within the United States. All pilots are welcome to contribute, edit, and improve any airport they have local knowledge about, no registration required.
Are you familiar with this airport? Help out other pilots by adding your local knowledge.
Uploaded photos will be licensed under a CC BY-SA 4.0 license. Please only upload photos you have the rights to use.
Tags
Public
Undocu­mented
METAR / TAF
Webcam
Edit Tags
Food
Camping
Lodging
Car Rental
Bicycles
Swimming
Golfing
Fishing
Hot Springs
Museum
Flying Clubs
Airpark
Upcoming Events
No upcoming events. Is anything happening here soon?
*
*
*

Where exactly on/near the airport is this event taking place?

Is there a webpage with more information for this event?

Who should be contacted for more information?

What is this event all about?

Repeat every
Description
Transient Parking
Fuel Location
Landing & Tie-down Fees
Crew Car Availability
Flying Clubs
WiFi Access
Airport Statistics
Location: Estevan, Saskatchewan
Elevation: 1,905ft
Runway 08/26: 5,000ft
Runway 15/33: 3,000ft
Warning: This airport was imported from a non-authoritative source. It's public/private status may not be accurate.
Access: Open to the public
Current Weather — VFR
  • Weather data is strictly informational and not for flight planning purposes.
  • METAR
    2024-04-21 23:00:00 CST
    Ceiling Wind Temperature Dewpoint Weather Visbility
    10,000ft 290° @ 14kt, gusts 19kt 53°F 30°F N/A 9SM
    Clouds: Broken @ 10,000ft, Overcast @ 12,000ft
    Raw: CYEN 220500Z AUTO 29014G19KT 9SM BKN100 OVC120 12/M01 A2966 RMK SLP056 DENSITY ALT 2300FT
  • TAF
    2024-04-21 12:00:00 CST – 2024-04-21 16:00:00 CST
    Ceiling Wind Weather Visbility
    25,000ft 210° @ 12kt, gusts 22kt N/A 6SM
    Clouds: Scattered @ 15,000ft, Broken @ 25,000ft
    Raw: TAF CYEN 211740Z 2118/2124 21012G22KT P6SM SCT150 BKN250 FM212200 21012G22KT P6SM BKN150 TEMPO 2122/2124 BKN100 RMK FCST BASED ON AUTO OBS. NXT FCST BY 221200Z
  • TAF
    2024-04-21 16:00:00 CST – 2024-04-21 18:00:00 CST
    Ceiling Wind Weather Visbility
    15,000ft 210° @ 12kt, gusts 22kt N/A 6SM
    Clouds: Broken @ 15,000ft
    Raw: TAF CYEN 211740Z 2118/2124 21012G22KT P6SM SCT150 BKN250 FM212200 21012G22KT P6SM BKN150 TEMPO 2122/2124 BKN100 RMK FCST BASED ON AUTO OBS. NXT FCST BY 221200Z
  • TAF
    2024-04-21 16:00:00 CST – 2024-04-21 18:00:00 CST
    Ceiling Wind Weather Visbility
    10,000ft ° @ kt N/A SM
    Clouds: Broken @ 10,000ft
    Raw: TAF CYEN 211740Z 2118/2124 21012G22KT P6SM SCT150 BKN250 FM212200 21012G22KT P6SM BKN150 TEMPO 2122/2124 BKN100 RMK FCST BASED ON AUTO OBS. NXT FCST BY 221200Z
Click/tap to add an annotation marker to the map
Direct links to live image URLs will be displayed inline on this page. URLs to separate webpages will be linked to.
URL:
Direct links to live image URLs will be displayed inline on this page. URLs to separate webpages will be linked to.
URL:
Comments
Leave a comment What was your experience like at this airport?